createdAt,value
2022-09-05T00:02:34.854Z,45.37
2022-09-05T00:05:21.638Z,46.96
2022-09-05T00:08:00.413Z,46.73
2022-09-05T00:11:03.421Z,45.57
2022-09-05T00:13:30.223Z,45.49
2022-09-05T00:16:32.051Z,44.82
2022-09-05T00:23:52.935Z,47.30
2022-09-05T00:24:37.160Z,46.64
2022-09-05T00:25:31.401Z,47.70
2022-09-05T00:28:26.124Z,48.32
2022-09-05T00:31:55.940Z,46.70
2022-09-05T00:34:18.074Z,48.81
2022-09-05T00:36:50.643Z,46.96
2022-09-05T00:39:26.239Z,45.75
2022-09-05T00:41:59.684Z,45.64
2022-09-05T00:44:32.983Z,45.60
2022-09-05T00:47:09.657Z,46.40
2022-09-05T00:49:45.107Z,46.47
2022-09-05T00:52:20.425Z,45.75
2022-09-05T00:55:12.699Z,45.91
2022-09-05T00:57:58.842Z,48.69
2022-09-05T01:00:38.900Z,47.94
2022-09-05T01:03:33.487Z,48.15
2022-09-05T01:06:16.561Z,48.60
2022-09-05T01:09:22.094Z,47.62
2022-09-05T01:12:05.765Z,48.32
2022-09-05T01:14:51.914Z,47.36
2022-09-05T01:17:36.852Z,48.87
2022-09-05T01:20:19.884Z,48.87
2022-09-05T01:23:08.409Z,48.32
2022-09-05T01:25:54.806Z,48.00
2022-09-05T01:29:17.388Z,48.87
2022-09-05T01:31:32.739Z,47.58
2022-09-05T01:34:10.004Z,48.33
2022-09-05T01:37:04.982Z,47.54
2022-09-05T01:40:15.475Z,50.71
2022-09-05T01:42:42.448Z,48.79
2022-09-05T01:45:21.979Z,48.89
2022-09-05T01:48:04.905Z,49.85
2022-09-05T01:50:44.894Z,49.50
2022-09-05T01:53:27.706Z,49.89
2022-09-05T01:56:16.269Z,51.57
2022-09-05T01:58:59.220Z,50.14
2022-09-05T02:01:42.196Z,51.74
2022-09-05T02:04:36.646Z,50.59
2022-09-05T02:07:22.542Z,50.57
2022-09-05T02:10:19.639Z,48.80
2022-09-05T02:12:59.746Z,49.31
2022-09-05T02:15:41.949Z,48.30
2022-09-05T02:18:23.179Z,49.46
2022-09-05T02:20:57.780Z,49.26
2022-09-05T02:23:44.621Z,49.01
2022-09-05T02:26:19.735Z,50.24
2022-09-05T02:28:54.976Z,49.79
2022-09-05T02:31:30.180Z,49.50
2022-09-05T02:34:04.867Z,49.69
2022-09-05T02:36:39.867Z,49.59
2022-09-05T02:45:01.614Z,49.32
2022-09-05T02:45:20.340Z,50.00
2022-09-05T02:45:28.310Z,50.20
2022-09-05T02:48:14.817Z,49.84
2022-09-05T02:57:27.799Z,50.20
2022-09-05T02:57:35.413Z,51.36
2022-09-05T02:57:45.326Z,49.38
2022-09-05T02:59:54.886Z,50.49
2022-09-05T03:02:30.399Z,50.24
2022-09-05T03:05:06.598Z,50.35
2022-09-05T03:08:03.020Z,49.95
2022-09-05T03:11:06.910Z,53.96
2022-09-05T03:14:12.100Z,52.55
2022-09-05T03:17:08.632Z,51.43
2022-09-05T03:20:26.075Z,50.84
2022-09-05T03:23:28.238Z,51.31
2022-09-05T03:26:34.158Z,53.65
2022-09-05T03:29:33.971Z,53.43
2022-09-05T03:32:48.972Z,53.13
2022-09-05T03:35:56.821Z,52.98
2022-09-05T03:38:59.152Z,53.06
2022-09-05T03:41:40.587Z,52.41
2022-09-05T03:44:35.865Z,50.92
2022-09-05T03:47:32.607Z,50.29
2022-09-05T03:53:35.568Z,50.59
2022-09-05T03:57:10.994Z,50.82
2022-09-05T03:57:13.961Z,51.21
2022-09-05T04:00:07.801Z,51.63
2022-09-05T04:08:09.353Z,51.83
2022-09-05T04:08:24.859Z,52.28
2022-09-05T04:08:49.028Z,50.13
2022-09-05T04:11:20.731Z,51.52
2022-09-05T04:13:54.474Z,50.12
2022-09-05T04:16:26.961Z,50.56
2022-09-05T04:19:08.124Z,50.77
2022-09-05T04:21:44.378Z,51.62
2022-09-05T04:24:18.842Z,51.42
2022-09-05T04:27:14.792Z,52.07
2022-09-05T04:29:55.383Z,53.41
2022-09-05T04:32:35.241Z,51.66
2022-09-05T04:35:16.682Z,51.71
2022-09-05T04:37:53.399Z,51.62
2022-09-05T04:40:38.622Z,51.74
2022-09-05T04:43:09.088Z,53.14
2022-09-05T04:45:42.486Z,51.80
2022-09-05T04:48:14.968Z,51.90
2022-09-05T04:51:01.956Z,52.89
2022-09-05T04:53:40.590Z,55.55
2022-09-05T04:56:16.036Z,53.47
2022-09-05T05:00:08.981Z,52.94
2022-09-05T05:06:08.548Z,52.20
2022-09-05T05:06:11.039Z,52.49
2022-09-05T05:07:28.878Z,51.64
2022-09-05T05:10:33.301Z,51.95
2022-09-05T05:17:59.035Z,52.04
2022-09-05T05:18:03.359Z,56.20
2022-09-05T05:18:59.557Z,53.69
2022-09-05T05:21:33.390Z,52.19
2022-09-05T05:24:11.706Z,51.85
2022-09-05T05:26:56.977Z,53.28
2022-09-05T05:29:37.053Z,52.54
2022-09-05T05:32:08.139Z,52.21
2022-09-05T05:34:44.393Z,51.36
2022-09-05T05:37:20.610Z,51.88
2022-09-05T05:39:59.108Z,52.22
2022-09-05T05:42:27.404Z,51.99
2022-09-05T05:44:58.762Z,51.97
2022-09-05T05:47:32.680Z,52.22
2022-09-05T05:50:11.252Z,52.26
2022-09-05T05:53:28.932Z,51.90
2022-09-05T05:56:31.542Z,54.74
2022-09-05T05:59:22.624Z,54.24
2022-09-05T06:02:30.458Z,54.04
2022-09-05T06:05:32.174Z,53.86
2022-09-05T06:10:31.809Z,54.14
2022-09-05T06:14:52.102Z,53.59
2022-09-05T06:15:10.650Z,53.59
2022-09-05T06:18:11.596Z,53.79
2022-09-05T06:22:11.513Z,53.96
2022-09-05T06:24:41.172Z,54.04
2022-09-05T06:27:34.868Z,53.71
2022-09-05T06:30:17.173Z,52.96
2022-09-05T06:33:06.267Z,52.20
2022-09-05T06:35:47.762Z,52.66
2022-09-05T06:38:31.319Z,51.96
2022-09-05T06:41:22.833Z,52.09
2022-09-05T06:44:23.950Z,52.65
2022-09-05T06:47:22.729Z,52.60
2022-09-05T06:50:27.539Z,51.10
2022-09-05T06:53:27.239Z,52.53
2022-09-05T06:56:25.483Z,52.30
2022-09-05T06:59:24.783Z,52.36
2022-09-05T07:02:00.683Z,52.06
2022-09-05T07:05:23.529Z,50.77
2022-09-05T07:07:35.718Z,51.29
2022-09-05T07:10:34.681Z,50.79
2022-09-05T07:13:07.254Z,50.62
2022-09-05T07:15:43.176Z,50.21
2022-09-05T07:18:18.033Z,50.15
2022-09-05T07:21:12.287Z,50.08
2022-09-05T07:24:08.997Z,50.04
2022-09-05T07:26:52.202Z,49.73
2022-09-05T07:29:30.011Z,49.91
2022-09-05T07:32:01.831Z,50.01
2022-09-05T07:34:31.677Z,49.61
2022-09-05T07:37:15.115Z,49.35
2022-09-05T07:39:50.867Z,49.07
2022-09-05T07:42:26.505Z,49.23
2022-09-05T07:44:59.293Z,49.01
2022-09-05T07:47:31.908Z,48.94
2022-09-05T07:50:27.918Z,48.69
2022-09-05T07:56:51.731Z,48.71
2022-09-05T07:57:01.707Z,48.51
2022-09-05T07:58:39.938Z,48.41
2022-09-05T08:01:10.269Z,48.24
2022-09-05T08:03:38.479Z,47.84
2022-09-05T08:06:10.456Z,47.62
2022-09-05T08:09:18.537Z,47.71
2022-09-05T08:11:40.705Z,47.29
2022-09-05T08:14:44.713Z,47.45
2022-09-05T08:17:16.030Z,47.16
2022-09-05T08:20:08.354Z,47.05
2022-09-05T08:22:48.010Z,46.81
2022-09-05T08:25:28.755Z,46.61
2022-09-05T08:28:20.907Z,46.76
2022-09-05T08:30:58.074Z,46.40
2022-09-05T08:33:33.324Z,46.14
2022-09-05T08:36:08.786Z,46.36
2022-09-05T08:38:41.218Z,46.16
2022-09-05T08:41:17.643Z,46.14
2022-09-05T08:46:38.032Z,46.09
2022-09-05T08:46:53.074Z,45.16
2022-09-05T08:49:49.776Z,45.07
2022-09-05T08:52:31.502Z,44.79
2022-09-05T08:55:11.326Z,44.51
2022-09-05T08:58:05.893Z,44.99
2022-09-05T09:00:41.795Z,44.13
2022-09-05T09:03:25.833Z,44.90
2022-09-05T09:06:21.703Z,44.22
2022-09-05T09:09:18.361Z,43.27
2022-09-05T09:11:54.388Z,42.91
2022-09-05T09:14:39.503Z,43.19
2022-09-05T09:17:24.303Z,42.75
2022-09-05T09:20:11.607Z,42.71
2022-09-05T09:22:44.653Z,43.19
2022-09-05T09:25:17.819Z,43.49
2022-09-05T09:28:45.153Z,43.54
2022-09-05T09:30:59.135Z,42.86
2022-09-05T09:33:37.840Z,43.20
2022-09-05T09:36:20.481Z,42.36
2022-09-05T09:39:21.528Z,42.24
2022-09-05T09:42:14.946Z,41.67
2022-09-05T09:45:27.757Z,41.45
2022-09-05T09:48:46.728Z,41.39
2022-09-05T09:51:36.683Z,40.83
2022-09-05T09:54:44.219Z,40.65
2022-09-05T09:58:01.121Z,40.31
2022-09-05T10:00:45.779Z,39.96
2022-09-05T10:09:37.003Z,40.40
2022-09-05T10:10:45.542Z,40.04
2022-09-05T10:10:49.032Z,39.93
2022-09-05T10:13:31.004Z,39.87
2022-09-05T10:16:24.015Z,39.63
2022-09-05T10:19:13.924Z,39.84
2022-09-05T10:25:19.473Z,39.36
2022-09-05T10:28:07.219Z,39.69
2022-09-05T10:33:21.304Z,38.96
2022-09-05T10:35:19.764Z,39.22
2022-09-05T10:36:32.509Z,39.52
2022-09-05T10:39:15.322Z,40.18
2022-09-05T10:41:50.010Z,39.44
2022-09-05T10:44:29.182Z,39.79
2022-09-05T10:47:07.737Z,39.33
2022-09-05T10:49:43.606Z,39.05
2022-09-05T10:52:18.401Z,39.15
2022-09-05T10:55:14.634Z,40.24
2022-09-05T10:57:57.703Z,38.16
2022-09-05T11:02:21.038Z,38.76
2022-09-05T11:03:50.232Z,38.15
2022-09-05T11:06:24.697Z,38.60
2022-09-05T11:09:05.047Z,39.08
2022-09-05T11:11:46.097Z,38.46
2022-09-05T11:14:42.781Z,38.41
2022-09-05T11:17:18.915Z,37.61
2022-09-05T11:19:58.460Z,38.67
2022-09-05T11:22:35.780Z,37.73
2022-09-05T11:25:10.919Z,38.31
2022-09-05T11:27:46.011Z,38.33
2022-09-05T11:30:30.123Z,38.29
2022-09-05T11:39:47.374Z,37.71
2022-09-05T11:39:55.488Z,36.56
2022-09-05T11:40:05.888Z,38.24
2022-09-05T11:42:21.968Z,36.19
2022-09-05T11:45:21.888Z,36.52
2022-09-05T11:48:23.159Z,35.77
2022-09-05T11:51:33.301Z,35.77
2022-09-05T11:54:23.555Z,35.95
2022-09-05T11:57:32.877Z,35.90
2022-09-05T12:00:31.168Z,35.98
2022-09-05T12:03:57.802Z,36.52
2022-09-05T12:06:56.300Z,35.86
2022-09-05T12:09:37.530Z,35.63
2022-09-05T12:12:41.385Z,36.32
2022-09-05T12:15:28.406Z,36.14
2022-09-05T12:18:18.833Z,35.53
2022-09-05T12:21:02.991Z,36.14
2022-09-05T12:24:11.606Z,35.43
2022-09-05T12:27:42.788Z,34.95
2022-09-05T12:29:40.035Z,35.94
2022-09-05T12:33:58.449Z,35.38
2022-09-05T12:36:07.464Z,36.39
2022-09-05T12:40:38.185Z,36.34
2022-09-05T12:41:43.318Z,35.10
2022-09-05T12:44:41.082Z,34.91
2022-09-05T12:47:17.009Z,33.68
2022-09-05T12:50:03.505Z,34.86
2022-09-05T12:52:46.311Z,35.12
2022-09-05T12:55:26.590Z,36.11
2022-09-05T13:01:23.417Z,33.60
2022-09-05T13:03:11.872Z,35.39
2022-09-05T13:04:15.822Z,35.79
2022-09-05T13:06:40.792Z,34.22
2022-09-05T13:09:11.608Z,35.02
2022-09-05T13:14:50.749Z,35.99
2022-09-05T13:15:07.985Z,33.56
2022-09-05T13:17:45.215Z,33.70
2022-09-05T13:20:21.659Z,35.17
2022-09-05T13:22:52.691Z,34.91
2022-09-05T13:25:27.012Z,35.47
2022-09-05T13:28:01.595Z,33.77
2022-09-05T13:33:11.824Z,33.76
2022-09-05T13:38:08.170Z,34.91
2022-09-05T13:38:20.786Z,34.97
2022-09-05T13:39:06.357Z,35.21
2022-09-05T13:41:43.121Z,34.25
2022-09-05T13:44:25.761Z,34.81
2022-09-05T13:47:02.039Z,34.26
2022-09-05T13:49:53.525Z,33.99
2022-09-05T13:52:31.292Z,34.28
2022-09-05T13:55:13.044Z,33.93
2022-09-05T13:57:45.590Z,33.90
2022-09-05T14:00:53.250Z,34.27
2022-09-05T14:03:40.698Z,32.41
2022-09-05T14:06:47.639Z,32.20
2022-09-05T14:09:37.159Z,32.66
2022-09-05T14:12:12.491Z,32.43
2022-09-05T14:17:56.099Z,32.94
2022-09-05T14:20:49.723Z,32.56
2022-09-05T14:23:21.009Z,33.10
2022-09-05T14:25:53.008Z,34.13
2022-09-05T14:28:27.662Z,33.66
2022-09-05T14:36:10.949Z,32.77
2022-09-05T14:37:41.495Z,33.99
2022-09-05T14:37:54.946Z,32.79
2022-09-05T14:40:43.388Z,32.26
2022-09-05T14:43:42.012Z,31.55
2022-09-05T14:46:39.287Z,32.66
2022-09-05T14:49:36.288Z,31.62
2022-09-05T14:52:18.834Z,31.68
2022-09-05T15:02:43.485Z,33.21
2022-09-05T15:02:46.049Z,31.73
2022-09-05T15:06:32.750Z,33.58
2022-09-05T15:12:01.008Z,33.42
2022-09-05T15:12:26.039Z,32.55
2022-09-05T15:14:50.525Z,33.07
2022-09-05T15:17:23.516Z,33.15
2022-09-05T15:20:06.202Z,32.69
2022-09-05T15:22:37.284Z,32.95
2022-09-05T15:25:25.757Z,33.35
2022-09-05T15:27:55.692Z,31.35
2022-09-05T15:30:35.191Z,33.31
2022-09-05T15:33:14.396Z,32.77
2022-09-05T15:35:43.996Z,31.99
2022-09-05T15:38:23.487Z,33.46
2022-09-05T15:41:10.967Z,31.47
2022-09-05T15:43:51.432Z,30.67
2022-09-05T15:46:29.456Z,31.79
2022-09-05T15:48:59.527Z,31.17
2022-09-05T15:51:42.160Z,31.97
2022-09-05T15:54:37.344Z,30.12
2022-09-05T15:57:15.286Z,31.77
2022-09-05T15:59:49.313Z,31.48
2022-09-05T16:02:21.975Z,32.71
2022-09-05T16:10:34.485Z,32.32
2022-09-05T16:10:42.034Z,32.38
2022-09-05T16:11:09.973Z,33.34
2022-09-05T16:13:52.422Z,33.86
2022-09-05T16:23:11.585Z,34.08
2022-09-05T16:23:26.369Z,34.54
2022-09-05T16:23:28.412Z,34.29
2022-09-05T16:25:02.880Z,34.63
2022-09-05T16:27:43.552Z,34.86
2022-09-05T16:30:21.890Z,34.93
2022-09-05T16:32:54.728Z,35.06
2022-09-05T16:35:26.227Z,35.28
2022-09-05T16:38:06.623Z,35.38
2022-09-05T16:40:38.944Z,35.55
2022-09-05T16:43:12.200Z,35.51
2022-09-05T16:45:49.715Z,35.56
2022-09-05T16:48:30.283Z,35.61
2022-09-05T16:51:13.327Z,35.71
2022-09-05T16:53:58.971Z,35.81
2022-09-05T16:56:33.076Z,35.74
2022-09-05T16:59:04.756Z,36.32
2022-09-05T17:01:54.811Z,36.34
2022-09-05T17:05:03.427Z,36.79
2022-09-05T17:07:44.715Z,36.63
2022-09-05T17:10:18.083Z,36.84
2022-09-05T17:12:46.569Z,36.82
2022-09-05T17:15:17.494Z,36.71
2022-09-05T17:18:21.652Z,36.86
2022-09-05T17:20:49.534Z,37.54
2022-09-05T17:29:16.775Z,37.19
2022-09-05T17:29:17.231Z,37.53
2022-09-05T17:30:21.943Z,37.40
2022-09-05T17:32:01.806Z,38.19
2022-09-05T17:34:49.550Z,37.31
2022-09-05T17:37:39.203Z,38.76
2022-09-05T17:40:32.312Z,38.61
2022-09-05T17:43:04.530Z,38.88
2022-09-05T17:45:44.928Z,38.19
2022-09-05T17:48:16.615Z,39.25
2022-09-05T17:50:53.949Z,38.22
2022-09-05T17:53:24.931Z,38.77
2022-09-05T17:56:33.065Z,38.94
2022-09-05T17:59:07.383Z,40.75
2022-09-05T18:01:36.908Z,39.69
2022-09-05T18:04:15.905Z,39.06
2022-09-05T18:06:59.503Z,39.21
2022-09-05T18:13:13.024Z,42.18
2022-09-05T18:16:11.868Z,39.74
2022-09-05T18:19:32.574Z,42.00
2022-09-05T18:21:49.746Z,39.68
2022-09-05T18:24:33.506Z,42.18
2022-09-05T18:28:03.920Z,40.91
2022-09-05T18:30:06.487Z,40.94
2022-09-05T18:32:39.694Z,40.55
2022-09-05T18:35:37.497Z,41.25
2022-09-05T18:38:51.312Z,42.45
2022-09-05T18:41:23.003Z,42.57
2022-09-05T18:44:12.137Z,41.21
2022-09-05T18:46:45.771Z,41.54
2022-09-05T18:50:21.525Z,41.34
2022-09-05T18:52:17.130Z,41.82
2022-09-05T18:56:09.628Z,42.17
2022-09-05T18:57:51.945Z,42.07
2022-09-05T19:00:46.941Z,41.90
2022-09-05T19:03:19.679Z,42.17
2022-09-05T19:06:35.076Z,42.05
2022-09-05T19:08:52.042Z,43.57
2022-09-05T19:11:28.938Z,42.61
2022-09-05T19:14:25.648Z,44.09
2022-09-05T19:16:49.685Z,43.04
2022-09-05T19:19:20.692Z,42.40
2022-09-05T19:22:39.514Z,43.21
2022-09-05T19:25:00.258Z,43.71
2022-09-05T19:33:50.486Z,43.84
2022-09-05T19:37:08.359Z,43.22
2022-09-05T19:37:13.758Z,45.45
2022-09-05T19:37:22.289Z,44.11
2022-09-05T19:43:07.423Z,43.36
2022-09-05T19:47:27.505Z,44.08
2022-09-05T19:47:43.283Z,45.94
2022-09-05T19:48:35.618Z,44.22
2022-09-05T19:51:17.260Z,45.08
2022-09-05T19:53:48.871Z,45.70
2022-09-05T19:56:39.644Z,43.80
2022-09-05T19:59:19.397Z,44.43
2022-09-05T20:01:52.038Z,45.64
2022-09-05T20:04:21.946Z,44.23
2022-09-05T20:06:59.989Z,43.69
2022-09-05T20:09:31.320Z,44.12
2022-09-05T20:12:19.810Z,45.07
2022-09-05T20:14:56.203Z,46.80
2022-09-05T20:17:29.619Z,44.23
2022-09-05T20:20:12.335Z,45.06
2022-09-05T20:23:03.291Z,45.94
2022-09-05T20:25:37.086Z,44.55
2022-09-05T20:28:10.297Z,45.13
2022-09-05T20:30:43.412Z,44.70
2022-09-05T20:33:24.157Z,45.34
2022-09-05T20:42:15.731Z,46.70
2022-09-05T20:43:21.746Z,45.60
2022-09-05T20:43:24.929Z,44.52
2022-09-05T20:45:43.443Z,44.57
2022-09-05T20:53:08.366Z,46.87
2022-09-05T20:54:15.845Z,44.61
2022-09-05T20:54:28.949Z,44.57
2022-09-05T20:56:48.023Z,44.68
2022-09-05T20:59:26.202Z,44.58
2022-09-05T21:02:03.204Z,45.07
2022-09-05T21:04:35.774Z,45.19
2022-09-05T21:07:23.835Z,45.63
2022-09-05T21:09:55.059Z,46.99
2022-09-05T21:12:27.926Z,45.05
2022-09-05T21:15:20.517Z,44.97
2022-09-05T21:17:53.579Z,46.80
2022-09-05T21:20:25.426Z,44.90
2022-09-05T21:22:53.324Z,46.07
2022-09-05T21:25:26.047Z,45.28
2022-09-05T21:28:24.551Z,45.45
2022-09-05T21:31:12.854Z,47.70
2022-09-05T21:33:45.476Z,45.62
2022-09-05T21:36:16.413Z,45.35
2022-09-05T21:38:45.343Z,46.39
2022-09-05T21:41:16.994Z,45.89
2022-09-05T21:47:35.736Z,46.82
2022-09-05T21:47:47.981Z,45.95
2022-09-05T21:49:25.949Z,45.81
2022-09-05T21:51:55.537Z,45.79
2022-09-05T21:59:16.463Z,45.97
2022-09-05T21:59:26.795Z,46.12
2022-09-05T22:00:11.004Z,47.37
2022-09-05T22:02:48.964Z,46.55
2022-09-05T22:05:17.509Z,46.83
2022-09-05T22:07:48.555Z,46.43
2022-09-05T22:10:16.735Z,46.48
2022-09-05T22:12:44.905Z,46.51
2022-09-05T22:15:27.938Z,46.61
2022-09-05T22:18:16.856Z,46.89
2022-09-05T22:20:57.227Z,46.47
2022-09-05T22:23:39.676Z,46.87
2022-09-05T22:26:07.904Z,47.02
2022-09-05T22:28:46.347Z,47.01
2022-09-05T22:31:14.540Z,47.19
2022-09-05T22:33:42.595Z,46.65
2022-09-05T22:36:10.783Z,46.69
2022-09-05T22:38:43.253Z,46.73
2022-09-05T22:41:11.337Z,46.79
2022-09-05T22:43:41.054Z,47.03
2022-09-05T22:46:09.078Z,47.24
2022-09-05T22:48:38.535Z,46.94
2022-09-05T22:51:07.564Z,47.48
2022-09-05T22:53:35.523Z,47.49
2022-09-05T22:56:07.850Z,47.13
2022-09-05T22:58:41.078Z,47.64
2022-09-05T23:01:09.547Z,48.25
2022-09-05T23:03:37.948Z,47.32
2022-09-05T23:06:07.754Z,47.20
2022-09-05T23:08:35.930Z,47.17
2022-09-05T23:11:09.367Z,47.15
2022-09-05T23:13:37.423Z,48.04
2022-09-05T23:16:06.358Z,47.12
2022-09-05T23:18:34.731Z,47.35
2022-09-05T23:21:03.175Z,47.14
2022-09-05T23:23:31.526Z,47.28
2022-09-05T23:26:01.184Z,47.56
2022-09-05T23:28:30.623Z,47.67
2022-09-05T23:31:00.690Z,47.54
2022-09-05T23:33:29.403Z,47.28
2022-09-05T23:36:00.224Z,47.19
2022-09-05T23:38:29.000Z,47.91
2022-09-05T23:41:01.302Z,47.75
2022-09-05T23:43:31.120Z,48.78
2022-09-05T23:45:59.405Z,47.90
2022-09-05T23:48:28.105Z,47.58
2022-09-05T23:50:56.808Z,47.51
2022-09-05T23:53:24.883Z,47.68
2022-09-05T23:55:52.740Z,47.60
2022-09-05T23:58:21.035Z,47.87
